Airfield :
LOGIN :

Register | Disclaimer

   EN    FR    IT 

 










Legend :    VFR   Marginal VFR   IFR   Intensive IFR   Very Intensive IFR
Visi :
Ceiling :
>= 8 km
>= 3000ft
5 to 8 km
1000 to 3000 ft
1500m to 5 km
500 to 1000 ft
800 to 1500m
200 to 500 ft
< 800m
< 200 ft
Symbols :   Thunderstorms  Fog  Heavy snow  Heavy precipitations  Wind > 20 kt
SIGMETs :     Misc.  Thunderstorms  Icing  Turbulence  Mountain Waves  Volcanic Ashes






- Airport Elevation : 423 ft
- IATA code : PIS


LFBI - Poitiers

CURRENT METAR :
  • 291230Z AUTO 21008KT 170V250 9999 FEW045 BKN052 BKN094 23/13 Q1015 TEMPO 4000 -RA BKN010

EXPIRED METARs :
  • 291200Z AUTO 22006KT 160V310 9999 BKN046 BKN052 23/13 Q1015 TEMPO 4000 -RA BKN010
  • 291130Z AUTO 21008KT 170V260 9999 OVC044 23/13 Q1015 TEMPO 4000 -RA BKN010
  • 291100Z AUTO 21008KT 170V250 9999 BKN042 23/13 Q1015 NOSIG
  • 291030Z AUTO 19006KT 140V230 9999 FEW038 22/12 Q1015 NOSIG
  • 291000Z AUTO 23006KT 180V270 9999 BKN036 21/12 Q1016 NOSIG

TAF TAF LFBI
Valid from the 29 at 12:00 until the 30 at 12:00 UTC


291100Z 2912/3012 21010KT 9999 BKN030
PROB40
TEMPO 2913/2916 4000 -RA BKN010
BECMG 2919/2921 27010KT
PROB30
TEMPO 2922/3001 4000 SHRA BKN070TCU
TEMPO 3001/3006 21005KT 4000 -RA BKN015
PROB30
TEMPO 3004/3006 3000 RA BKN010
TEMPO 3008/3012 4000 -SHRA BKN025TCU



MET'MAP, your aeronautical weather chart ! - Copyright ORBIFLY December 2007 - Disclaimer

ORBIFLY MET'MAP TEAM :

Programming & Development : Alexandra Zaïnal
Original concept : Baudouin d'Aumeries
Technical & hardware support : Manuel Goepfert
Assistance : Marc-Olivier Méhu




SOURCES & CREDITS :

   NOAA